x

Ne Bahamas - 350 Nm Ene Of Nassau, Bahamas (41047) Wave Buoy

2:50am - Sun 29th Mar 2015 All times are UTC.

  • Sig Wave height 6.2ft
  • Swell Direction
  • Peak Period 8s
  • Average Period 6s
  • Wind
    11mph, 13mph gusts
  • Sea Temp 75°f
  • Air Temp 72°f
  • Sea Pressure 1019.3mb

More Historic Weather Station data

Upgrade to MSW Pro to gain access to the past 30 days of data for over 8000 Wavebouys and Weather Stations around the globe.

Join Pro

Comparision Forecast

View Surf forecast
   
Sun 03/29 2:50am 6ft 8s 6s 11 13 mph 1019.3mb 75f 72f
1:50am 6ft 8s 6s 11 13 mph 1019.1mb 75f 72f
12:50am 6.5ft 8s 6s 13 18 mph 1018.4mb 75f 73f
Sat 03/28 11:50pm 6ft 8s 6s 11 13 mph 1017.7mb 75f 73f
10:50pm 5.5ft 7s 6s 18 22 mph 1017mb 75f 73f
9:50pm 6ft 7s 6s 18 20 mph 1016.5mb 75f 74f
8:50pm 6ft 8s 6s 16 18 mph 1015.6mb 75f 74f
7:50pm 6.5ft 7s 6s 18 22 mph 1014.9mb 75f 71f
6:50pm 6.5ft 7s 6s 13 16 mph 1014.7mb 75f 75f
5:50pm 6.5ft 7s 6s 16 18 mph 1015.1mb 75f 75f
4:50pm 6ft 7s 6s 16 18 mph 1016mb 75f 75f
3:50pm 6ft 7s 6s 18 20 mph 1016.2mb 75f 73f
2:50pm 7ft 7s 6s 16 20 mph 1016.5mb 75f 72f
1:50pm 7.5ft 6s 6s 11 13 mph 1016.7mb 75f 71f
12:50pm 7ft 7s 6s 11 13 mph 1016.5mb 75f 69f
11:50am 7ft 6s 5s 22 29 mph 1015.3mb 75f 77f
10:50am 7ft 6s 5s 22 27 mph 1014.4mb 75f 76f
9:50am 6.5ft 6s 5s 22 27 mph 1014mb 75f 76f
8:50am 7ft 6s 5s 25 29 mph 1013mb 75f 76f
7:50am 7ft 6s 5s 22 27 mph 1013.1mb 75f 76f
6:50am 7ft 6s 5s 22 27 mph 1013.4mb 75f 76f
5:50am 6.5ft 6s 5s 20 25 mph 1014.5mb 75f 76f
4:50am 6ft 8s 5s 20 22 mph 1015.1mb 75f 76f
3:50am 6ft 6s 5s 20 25 mph 1015.2mb 75f 76f
2:50am 6ft 6s 5s 20 27 mph 1015.4mb 75f 76f
1:50am 6ft 8s 6s 20 25 mph 1015.6mb 75f 76f
12:50am 6ft 8s 6s 18 22 mph 1015.3mb 75f 76f
Fri 03/27 11:50pm 6ft 9s 6s 18 22 mph 1014.7mb 75f 76f
10:50pm 6ft 8s 6s 18 22 mph 1014.6mb 75f 76f
9:50pm 6ft 8s 6s 18 20 mph 1014.9mb 75f 77f
8:50pm 6ft 8s 6s 18 20 mph 1015.2mb 75f 77f
7:50pm 6ft 8s 6s 18 22 mph 1015.5mb 75f 77f
6:50pm 6.5ft 8s 6s 18 22 mph 1015.7mb 75f 77f
5:50pm 6ft 8s 6s 18 22 mph 1016.5mb 75f 76f
4:50pm 6.5ft 8s 6s 18 22 mph 1017.3mb 75f 76f
3:50pm 6ft 9s 6s 18 22 mph 1017.6mb 75f 76f
2:50pm 7ft 8s 6s 20 22 mph 1017.5mb 75f 76f
1:50pm 7ft 9s 6s 18 22 mph 1017.5mb 75f 76f
12:50pm 7.5ft 8s 6s 18 22 mph 1017.4mb 75f 76f
11:50am 7ft 8s 6s 18 20 mph 1017.4mb 75f 75f
10:50am 8ft 8s 6s 18 22 mph 1017mb 75f 75f
9:50am 8.5ft 8s 6s 20 25 mph 1016.5mb 75f 75f
8:50am 9ft 8s 6s 20 25 mph 1016mb 75f 75f
7:50am 8ft 8s 6s 20 25 mph 1016mb 74f 74f
6:50am 9ft 8s 6s 22 27 mph 1016.4mb 74f 74f
5:50am 8.5ft 8s 6s 22 27 mph 1016.9mb 74f 74f
4:50am 9.5ft 8s 6s 27 31 mph 1017.3mb 74f 74f
3:50am 9ft 8s 6s 25 31 mph 1018.2mb 74f 73f
2:50am 9ft 8s 6s 22 29 mph 1019mb 74f 72f
1:50am 9ft 8s 6s 25 29 mph 1019mb 74f 74f
12:50am 8ft 8s 6s 25 29 mph 1018.9mb 74f 74f
Thu 03/26 11:50pm 7.5ft 9s 6s 18 22 mph 1019.3mb 74f 71f
10:50pm 9ft 8s 6s 22 27 mph 1019.2mb 74f 73f
9:50pm 9ft 8s 6s 22 29 mph 1019.1mb 74f 73f
8:50pm 9ft 9s 6s 25 29 mph 1019mb 74f 74f
7:50pm 8ft 8s 6s 25 29 mph 1019.2mb 74f 73f
6:50pm 9ft 8s 7s 25 29 mph 1019.7mb 74f 74f
5:50pm 8.5ft 8s 6s 25 29 mph 1020.4mb 74f 73f
4:50pm 9ft 8s 6s 25 29 mph 1021.1mb 74f 74f
3:50pm 8ft 8s 6s 25 29 mph 1021.7mb 74f 74f
2:50pm 8ft 8s 6s 22 27 mph 1022mb 74f 73f
1:50pm 7ft 8s 6s 22 27 mph 1022mb 74f 72f
12:50pm 6.5ft 8s 6s 20 22 mph 1022mb 74f 72f
11:50am 7ft 8s 6s 22 27 mph 1021.7mb 74f 73f
10:50am 7.5ft 8s 6s 20 25 mph 1021.2mb 74f 73f
9:50am 7ft 8s 6s 20 27 mph 1020.9mb 74f 73f
8:50am 7ft 6s 6s 20 22 mph 1021mb 74f 73f
7:50am 6ft 6s 5s 20 25 mph 1021.1mb 74f 73f
6:50am 6ft 8s 5s 18 22 mph 1021.7mb 74f 72f
5:50am 5ft 8s 5s 18 25 mph 1022.2mb 74f 72f
4:50am 5ft 8s 5s 18 22 mph 1023.1mb 74f 72f
3:50am 5ft 7s 5s 18 22 mph 1023.4mb 74f 72f
2:50am 5.5ft 8s 6s 20 22 mph 1023.5mb 74f 72f
1:50am 5.5ft 8s 6s 18 22 mph 1023.6mb 74f 73f
12:50am 6ft 8s 6s 18 22 mph 1023.5mb 74f 73f
Wed 03/25 11:50pm 6ft 8s 6s 18 22 mph 1023.2mb 74f 73f
10:50pm 6ft 8s 6s 18 22 mph 1022.9mb 74f 73f
9:50pm 6ft 8s 6s 20 22 mph 1022.3mb 74f 73f
8:50pm 6ft 8s 6s 20 22 mph 1021.8mb 74f 73f
7:50pm 6ft 8s 6s 18 22 mph 1021.6mb 74f 73f
6:50pm 6ft 9s 6s 18 20 mph 1021.8mb 74f 73f
5:50pm 6ft 9s 6s 18 22 mph 1022.1mb 74f 73f
4:50pm 6ft 8s 6s 18 20 mph 1022.6mb 74f 73f
3:50pm 6ft 8s 6s 18 22 mph 1022.9mb 74f 73f
2:50pm 6ft 9s 6s 18 20 mph 1023mb 74f 73f
1:50pm 6ft 8s 6s 18 22 mph 1022.7mb 74f 73f
12:50pm 5ft 7s 6s 20 22 mph 1021.9mb 74f 73f
11:50am 6ft 9s 6s 18 20 mph 1021mb 74f 73f
10:50am 6ft 8s 6s 18 22 mph 1020.3mb 74f 72f
9:50am 5.5ft 9s 6s 18 20 mph 1019.8mb 74f 72f
8:50am 6ft 8s 6s 18
mph
1019.6mb 74f 73f
7:50am 6ft 9s 6s 18 20 mph 1019.6mb 74f 73f
6:50am 6ft 8s 6s 16 20 mph 1019.8mb 74f 73f
5:50am 5.5ft 9s 6s 16 18 mph 1020.2mb 74f 73f
4:50am 5.5ft 10s 6s 13 18 mph 1020.2mb 74f 73f